Delaware County Johnson Field Muncie US
ICAO: KMIE
IATA: MIE
Category: Medium
Scheduled Services: No

Elevation: 937 ft
TransAlt. 18000 ft.

Airport Communications:
ASOS:114.4
ATIS:133.25
INDIANAPOLIS CNTR:120.65
CTAF:120.1
MUNCIE GND:121.9
TERRE HAUTE RDO:114.4
MUNCIE TWR:120.1
UNICOM:122.95

KMIE Zoom In..

Runways:

(A) RW 02 length 5198 ft width 100 ft
---- / hdg 25

(B) RW 14 length 6500 ft width 150 ft
---- / hdg 139

(C) RW 20 length 5198 ft width 100 ft
---- / hdg 205

(D) RW 32 length 6500 ft width 150 ft
ILS 109.10 / hdg 319

Location; KMIE
Day. 21 / Time. 14.53 Zulu
* Altimeter: 30.14
* Temperature: 22° c. 71.6°f.
* Wind from: 120° Speed 09 kn.
Dewpoint: 16° c.
Visibility: 10 Statute Miles.
Clouds: Few 4700 ft.

KMIE 211453Z 12009KT 10SM FEW047 22/16 A3014 RMK AO2 SLP199 T02170156 58001


Wind From 120°
Speed 09 kn.

 
 
jpsmedia.com for Web Design SOUNDCLOUD worldairports.se 2018   terms of use